createdAt,value
2017-02-06T00:09:39.402Z,0
2017-02-06T00:19:53.633Z,0
2017-02-06T00:30:07.051Z,0
2017-02-06T00:40:21.394Z,0
2017-02-06T00:50:35.573Z,0
2017-02-06T01:00:48.678Z,0
2017-02-06T01:11:01.696Z,0
2017-02-06T01:21:16.518Z,0
2017-02-06T01:31:30.647Z,0
2017-02-06T01:41:44.490Z,0
2017-02-06T01:51:58.400Z,0
2017-02-06T02:02:12.991Z,0
2017-02-06T02:12:27.904Z,0
2017-02-06T02:22:42.414Z,0
2017-02-06T02:32:55.898Z,0
2017-02-06T02:43:09.498Z,0
2017-02-06T02:53:23.425Z,0
2017-02-06T03:03:37.029Z,0
2017-02-06T03:13:51.540Z,0
2017-02-06T03:24:05.112Z,0
2017-02-06T03:34:19.879Z,0
2017-02-06T03:44:33.169Z,0
2017-02-06T03:54:47.426Z,0
2017-02-06T04:05:01.860Z,0
2017-02-06T04:15:15.465Z,0
2017-02-06T04:25:29.269Z,0
2017-02-06T04:35:43.256Z,0
2017-02-06T04:45:56.990Z,0
2017-02-06T04:56:10.049Z,0
2017-02-06T05:06:24.437Z,0
2017-02-06T05:16:39.456Z,0
2017-02-06T05:26:52.938Z,0
2017-02-06T05:37:06.609Z,0
2017-02-06T05:47:20.680Z,0
2017-02-06T05:57:34.313Z,0
2017-02-06T06:07:48.063Z,0
2017-02-06T06:18:02.282Z,0
2017-02-06T06:28:17.292Z,0
2017-02-06T06:38:31.536Z,0
2017-02-06T06:48:44.871Z,0
2017-02-06T06:58:59.247Z,5
2017-02-06T07:09:13.631Z,10
2017-02-06T07:29:42.036Z,35
2017-02-06T07:39:57.268Z,50
2017-02-06T07:50:12.100Z,65
2017-02-06T08:00:26.404Z,60
2017-02-06T08:10:39.959Z,95
2017-02-06T08:20:53.228Z,110
2017-02-06T08:31:07.357Z,135
2017-02-06T08:41:20.984Z,150
2017-02-06T08:51:35.753Z,210
2017-02-06T09:01:49.949Z,235
2017-02-06T09:12:03.773Z,230
2017-02-06T09:22:17.646Z,185
2017-02-06T09:32:32.617Z,220
2017-02-06T09:42:47.347Z,215
2017-02-06T09:53:02.530Z,255
2017-02-06T10:03:16.103Z,120
2017-02-06T10:13:31.065Z,255
2017-02-06T10:23:44.474Z,355
2017-02-06T10:33:59.473Z,250
2017-02-06T10:44:13.470Z,280
2017-02-06T10:54:26.678Z,380
2017-02-06T11:04:40.213Z,280
2017-02-06T11:14:53.869Z,230
2017-02-06T11:25:08.459Z,275
2017-02-06T11:35:22.197Z,270
2017-02-06T11:45:37.225Z,285
2017-02-06T11:55:50.695Z,335
2017-02-06T12:06:04.626Z,280
2017-02-06T12:16:18.235Z,220
2017-02-06T12:26:32.750Z,260
2017-02-06T12:36:46.957Z,225
2017-02-06T12:47:01.214Z,200
2017-02-06T12:57:16.148Z,205
2017-02-06T13:07:30.299Z,180
2017-02-06T13:17:44.828Z,175
2017-02-06T13:27:59.495Z,140
2017-02-06T13:38:13.017Z,105
2017-02-06T13:48:26.095Z,105
2017-02-06T13:58:40.848Z,115
2017-02-06T14:08:54.650Z,115
2017-02-06T14:19:08.998Z,75
2017-02-06T14:29:23.927Z,65
2017-02-06T14:39:39.078Z,155
2017-02-06T14:49:53.249Z,110
2017-02-06T15:00:07.355Z,100
2017-02-06T15:10:21.000Z,115
2017-02-06T15:20:35.248Z,90
2017-02-06T15:30:49.856Z,90
2017-02-06T15:41:04.428Z,85
2017-02-06T15:51:17.550Z,75
2017-02-06T16:01:32.250Z,50
2017-02-06T16:11:47.271Z,35
2017-02-06T16:22:01.172Z,10
2017-02-06T16:32:16.017Z,5
2017-02-06T16:42:30.509Z,0
2017-02-06T16:52:44.398Z,0
2017-02-06T17:02:57.706Z,0
2017-02-06T17:13:12.226Z,0
2017-02-06T17:23:27.122Z,0
2017-02-06T17:33:40.968Z,0
2017-02-06T17:43:54.172Z,0
2017-02-06T17:54:07.823Z,0
2017-02-06T18:04:21.516Z,0
2017-02-06T18:14:34.870Z,0
2017-02-06T18:24:48.780Z,0
2017-02-06T18:35:02.916Z,0
2017-02-06T18:45:17.122Z,0
2017-02-06T18:55:29.783Z,0
2017-02-06T19:05:43.941Z,0
2017-02-06T19:15:58.418Z,0
2017-02-06T19:26:10.989Z,0
2017-02-06T19:36:25.543Z,0
2017-02-06T19:46:39.563Z,0
2017-02-06T19:56:53.604Z,0
2017-02-06T20:07:07.678Z,0
2017-02-06T20:17:22.513Z,0
2017-02-06T20:27:37.299Z,0
2017-02-06T20:37:52.227Z,0
2017-02-06T20:48:07.308Z,0
2017-02-06T20:58:20.821Z,0
2017-02-06T21:08:34.720Z,0
2017-02-06T21:18:49.135Z,0
2017-02-06T21:29:03.602Z,0
2017-02-06T21:39:17.520Z,0
2017-02-06T21:49:32.059Z,0
2017-02-06T21:59:46.183Z,0
2017-02-06T22:09:59.408Z,0
2017-02-06T22:20:13.863Z,0
2017-02-06T22:30:27.733Z,0
2017-02-06T22:40:41.443Z,0
2017-02-06T22:50:55.292Z,0
2017-02-06T23:01:09.685Z,0
2017-02-06T23:11:23.328Z,0
2017-02-06T23:21:37.382Z,0
2017-02-06T23:31:52.319Z,0
2017-02-06T23:42:06.324Z,0
2017-02-06T23:52:20.344Z,0
